EZS32AW EGKK-LSGG
Flight info
| Callsign | EZS32AW |
|---|---|
| Flight time | N/A |
| Altitude | 31000 |
| Route | SFD Y47 BENBO L612 HAWKE UL612 VEULE DCT PEKIM DCT PILUL DCT PIMUP/N0444F270 DCT PIXIS DCT PIBAT DCT LUSAR |
| Aircraft | A320/M-SDE3FGHIRWY/LB1 |
Departure
| Time | N/A |
|---|---|
| Airport | London Gatwick Airport (EGKK) |
Arrival
| Time | 2026-05-04 02:39 |
|---|---|
| Airport | Geneva International Airport (LSGG) |
| Time | Latitude | Longitude | Altitude | Speed | Heading |
|---|---|---|---|---|---|
| 2026-05-04 01:37 | 50.23342 | 0.23484 | 27450 ft | 424 kts | 152° |
| 2026-05-04 01:38 | 50.20869 | 0.26019 | 27773 ft | 425 kts | 152° |
| 2026-05-04 01:38 | 50.18395 | 0.28563 | 28087 ft | 426 kts | 152° |
| 2026-05-04 01:38 | 50.15921 | 0.31112 | 28382 ft | 427 kts | 153° |
| 2026-05-04 01:38 | 50.13445 | 0.33662 | 28663 ft | 427 kts | 153° |
| 2026-05-04 01:39 | 50.10964 | 0.36214 | 28937 ft | 428 kts | 153° |
| 2026-05-04 01:39 | 50.08476 | 0.38768 | 29221 ft | 428 kts | 153° |
| 2026-05-04 01:39 | 50.05997 | 0.41309 | 29605 ft | 425 kts | 153° |
| 2026-05-04 01:39 | 50.03528 | 0.43836 | 29998 ft | 423 kts | 153° |
| 2026-05-04 01:40 | 50.01076 | 0.46344 | 30330 ft | 421 kts | 154° |
| 2026-05-04 01:40 | 49.98629 | 0.48839 | 30618 ft | 420 kts | 154° |
| 2026-05-04 01:40 | 49.96187 | 0.51320 | 30884 ft | 420 kts | 154° |
| 2026-05-04 01:41 | 49.91310 | 0.56270 | 30975 ft | 417 kts | 154° |
| 2026-05-04 01:41 | 49.86460 | 0.61208 | 30972 ft | 418 kts | 152° |
| 2026-05-04 01:42 | 49.82048 | 0.67271 | 30973 ft | 426 kts | 144° |
| 2026-05-04 01:42 | 49.77766 | 0.73521 | 30973 ft | 425 kts | 145° |
| 2026-05-04 01:43 | 49.73450 | 0.79780 | 30969 ft | 425 kts | 145° |
| 2026-05-04 01:43 | 49.69130 | 0.86035 | 30968 ft | 425 kts | 145° |
| 2026-05-04 01:44 | 49.64803 | 0.92279 | 30963 ft | 425 kts | 145° |
| 2026-05-04 01:44 | 49.60483 | 0.98495 | 30964 ft | 425 kts | 145° |
| 2026-05-04 01:45 | 49.56167 | 1.04700 | 30960 ft | 424 kts | 145° |
| 2026-05-04 01:45 | 49.49686 | 1.13976 | 30953 ft | 424 kts | 145° |
| 2026-05-04 01:46 | 49.45358 | 1.20144 | 30949 ft | 424 kts | 145° |
| 2026-05-04 01:46 | 49.41023 | 1.26308 | 30946 ft | 424 kts | 145° |
| 2026-05-04 01:47 | 49.36715 | 1.32431 | 30945 ft | 425 kts | 145° |
| 2026-05-04 01:47 | 49.32362 | 1.38596 | 30942 ft | 426 kts | 145° |
| 2026-05-04 01:48 | 49.28006 | 1.44752 | 30941 ft | 427 kts | 145° |
| 2026-05-04 01:48 | 49.23634 | 1.50916 | 30943 ft | 427 kts | 145° |
| 2026-05-04 01:49 | 49.19260 | 1.57070 | 30940 ft | 427 kts | 145° |
| 2026-05-04 01:49 | 49.14874 | 1.63226 | 30945 ft | 428 kts | 145° |
| 2026-05-04 01:50 | 49.10484 | 1.69367 | 30949 ft | 429 kts | 145° |
| 2026-05-04 01:50 | 49.06073 | 1.75525 | 30943 ft | 430 kts | 145° |
| 2026-05-04 01:51 | 49.01696 | 1.81618 | 30943 ft | 430 kts | 145° |
| 2026-05-04 01:51 | 48.97297 | 1.87721 | 30940 ft | 431 kts | 145° |
| 2026-05-04 01:52 | 48.92859 | 1.93870 | 30940 ft | 431 kts | 145° |
| 2026-05-04 01:52 | 48.89071 | 1.99105 | 30939 ft | 432 kts | 145° |
| 2026-05-04 01:53 | 48.84618 | 2.05257 | 30940 ft | 433 kts | 145° |
| 2026-05-04 01:53 | 48.80152 | 2.11401 | 30946 ft | 434 kts | 145° |
| 2026-05-04 01:54 | 48.75669 | 2.17549 | 30945 ft | 434 kts | 145° |
| 2026-05-04 01:54 | 48.71183 | 2.23689 | 30945 ft | 435 kts | 145° |
| 2026-05-04 01:55 | 48.66679 | 2.29834 | 30946 ft | 436 kts | 145° |
| 2026-05-04 01:55 | 48.62160 | 2.35985 | 30946 ft | 436 kts | 145° |
| 2026-05-04 01:56 | 48.57649 | 2.42117 | 30947 ft | 436 kts | 145° |
| 2026-05-04 01:56 | 48.53129 | 2.48237 | 30946 ft | 437 kts | 145° |
| 2026-05-04 01:57 | 48.48597 | 2.54341 | 30946 ft | 437 kts | 145° |
| 2026-05-04 01:57 | 48.44090 | 2.60418 | 30946 ft | 437 kts | 145° |
| 2026-05-04 01:58 | 48.39551 | 2.66535 | 30947 ft | 438 kts | 145° |
| 2026-05-04 01:58 | 48.35007 | 2.72637 | 30945 ft | 438 kts | 145° |
| 2026-05-04 01:59 | 48.30457 | 2.78718 | 30949 ft | 438 kts | 145° |
| 2026-05-04 01:59 | 48.25838 | 2.84767 | 30952 ft | 436 kts | 147° |
| 2026-05-04 02:00 | 48.21072 | 2.90342 | 30953 ft | 433 kts | 149° |
| 2026-05-04 02:00 | 48.16268 | 2.95708 | 30950 ft | 433 kts | 149° |
| 2026-05-04 02:01 | 48.11463 | 3.01152 | 30952 ft | 433 kts | 149° |
| 2026-05-04 02:01 | 48.06459 | 3.05977 | 30950 ft | 422 kts | 161° |
| 2026-05-04 02:02 | 48.01070 | 3.09397 | 30953 ft | 421 kts | 163° |
| 2026-05-04 02:02 | 47.95672 | 3.12782 | 30953 ft | 421 kts | 163° |
| 2026-05-04 02:03 | 47.91144 | 3.15623 | 30955 ft | 421 kts | 162° |
| 2026-05-04 02:03 | 47.85774 | 3.18989 | 30957 ft | 421 kts | 162° |
| 2026-05-04 02:04 | 47.80367 | 3.22376 | 30949 ft | 421 kts | 162° |
| 2026-05-04 02:04 | 47.74958 | 3.25750 | 30958 ft | 422 kts | 162° |
| 2026-05-04 02:05 | 47.69539 | 3.29118 | 30961 ft | 422 kts | 162° |
| 2026-05-04 02:05 | 47.64115 | 3.32494 | 30862 ft | 424 kts | 162° |
| 2026-05-04 02:06 | 47.61386 | 3.34185 | 30612 ft | 425 kts | 162° |
| 2026-05-04 02:06 | 47.58666 | 3.35870 | 30752 ft | 424 kts | 162° |
| 2026-05-04 02:06 | 47.55936 | 3.37557 | 30935 ft | 425 kts | 162° |
| 2026-05-04 02:06 | 47.53206 | 3.39244 | 30983 ft | 426 kts | 162° |
| 2026-05-04 02:07 | 47.47735 | 3.42617 | 30989 ft | 426 kts | 162° |
| 2026-05-04 02:07 | 47.42267 | 3.45994 | 30991 ft | 426 kts | 162° |
| 2026-05-04 02:08 | 47.36796 | 3.49365 | 30985 ft | 426 kts | 162° |
| 2026-05-04 02:08 | 47.31319 | 3.52721 | 30990 ft | 426 kts | 162° |
| 2026-05-04 02:09 | 47.25845 | 3.56062 | 30989 ft | 426 kts | 162° |
| 2026-05-04 02:09 | 47.20367 | 3.59403 | 30994 ft | 426 kts | 162° |
| 2026-05-04 02:10 | 47.14890 | 3.62735 | 30989 ft | 426 kts | 162° |
| 2026-05-04 02:10 | 47.09411 | 3.66070 | 30994 ft | 426 kts | 162° |
| 2026-05-04 02:11 | 47.03966 | 3.69375 | 30990 ft | 426 kts | 162° |
| 2026-05-04 02:11 | 46.98538 | 3.73052 | 30992 ft | 433 kts | 153° |
| 2026-05-04 02:12 | 46.94004 | 3.78930 | 31005 ft | 447 kts | 134° |
| 2026-05-04 02:12 | 46.90968 | 3.87008 | 31003 ft | 462 kts | 116° |
| 2026-05-04 02:13 | 46.88654 | 3.95791 | 31004 ft | 462 kts | 117° |
| 2026-05-04 02:13 | 46.86319 | 4.04540 | 31005 ft | 462 kts | 117° |
| 2026-05-04 02:14 | 46.83977 | 4.13296 | 31007 ft | 463 kts | 117° |
| 2026-05-04 02:14 | 46.81631 | 4.22052 | 31006 ft | 463 kts | 117° |
| 2026-05-04 02:15 | 46.79834 | 4.31140 | 31009 ft | 470 kts | 107° |
| 2026-05-04 02:15 | 46.78484 | 4.40478 | 31007 ft | 470 kts | 107° |
| 2026-05-04 02:16 | 46.77112 | 4.49810 | 31009 ft | 470 kts | 107° |
| 2026-05-04 02:16 | 46.75742 | 4.59134 | 31006 ft | 470 kts | 107° |
| 2026-05-04 02:17 | 46.74359 | 4.68450 | 31008 ft | 470 kts | 108° |
| 2026-05-04 02:17 | 46.72964 | 4.77778 | 31012 ft | 470 kts | 108° |
| 2026-05-04 02:18 | 46.71571 | 4.87063 | 31015 ft | 469 kts | 108° |
| 2026-05-04 02:18 | 46.70177 | 4.96342 | 31019 ft | 468 kts | 108° |
| 2026-05-04 02:19 | 46.68775 | 5.05607 | 31024 ft | 468 kts | 108° |
| 2026-05-04 02:19 | 46.67359 | 5.14875 | 31026 ft | 469 kts | 108° |
| 2026-05-04 02:20 | 46.65944 | 5.24141 | 31031 ft | 469 kts | 107° |
| 2026-05-04 02:20 | 46.64547 | 5.33418 | 30588 ft | 464 kts | 107° |
| 2026-05-04 02:21 | 46.63859 | 5.38005 | 28653 ft | 469 kts | 107° |
| 2026-05-04 02:21 | 46.63147 | 5.42686 | 26722 ft | 477 kts | 107° |
| 2026-05-04 02:21 | 46.62428 | 5.47388 | 25266 ft | 472 kts | 107° |
| 2026-05-04 02:21 | 46.61720 | 5.52014 | 24000 ft | 465 kts | 106° |
| 2026-05-04 02:22 | 46.61016 | 5.56567 | 22681 ft | 457 kts | 106° |
| 2026-05-04 02:22 | 46.60320 | 5.61038 | 21454 ft | 448 kts | 107° |
| 2026-05-04 02:22 | 46.59638 | 5.65390 | 20737 ft | 431 kts | 107° |
| 2026-05-04 02:22 | 46.58993 | 5.69514 | 20314 ft | 408 kts | 107° |
| 2026-05-04 02:23 | 46.58375 | 5.73446 | 19825 ft | 391 kts | 108° |
| 2026-05-04 02:23 | 46.57536 | 5.77102 | 19358 ft | 376 kts | 118° |
| 2026-05-04 02:23 | 46.56282 | 5.80396 | 18908 ft | 369 kts | 128° |
| 2026-05-04 02:23 | 46.54687 | 5.83282 | 18454 ft | 365 kts | 137° |
| 2026-05-04 02:24 | 46.52809 | 5.85719 | 17951 ft | 359 kts | 146° |
| 2026-05-04 02:24 | 46.50776 | 5.87777 | 17498 ft | 354 kts | 148° |
| 2026-05-04 02:24 | 46.48752 | 5.89809 | 17025 ft | 352 kts | 148° |
| 2026-05-04 02:24 | 46.46742 | 5.91828 | 16535 ft | 350 kts | 148° |
| 2026-05-04 02:25 | 46.44750 | 5.93825 | 16216 ft | 344 kts | 148° |
| 2026-05-04 02:25 | 46.42816 | 5.95765 | 16084 ft | 332 kts | 148° |
| 2026-05-04 02:25 | 46.40945 | 5.97643 | 15950 ft | 321 kts | 148° |
| 2026-05-04 02:25 | 46.39136 | 5.99458 | 15824 ft | 311 kts | 148° |
| 2026-05-04 02:26 | 46.37371 | 6.01209 | 15594 ft | 304 kts | 151° |
| 2026-05-04 02:26 | 46.35443 | 6.02341 | 15530 ft | 297 kts | 171° |
| 2026-05-04 02:26 | 46.33398 | 6.02367 | 15418 ft | 295 kts | 191° |
| 2026-05-04 02:26 | 46.31477 | 6.01302 | 14899 ft | 300 kts | 213° |
| 2026-05-04 02:27 | 46.29929 | 5.99267 | 14543 ft | 301 kts | 224° |
| 2026-05-04 02:27 | 46.28459 | 5.97083 | 14168 ft | 301 kts | 224° |
| 2026-05-04 02:27 | 46.26995 | 5.94944 | 13848 ft | 297 kts | 223° |
| 2026-05-04 02:27 | 46.25549 | 5.92842 | 13112 ft | 296 kts | 223° |
| 2026-05-04 02:28 | 46.24120 | 5.90768 | 12511 ft | 291 kts | 223° |
| 2026-05-04 02:28 | 46.22714 | 5.88723 | 12051 ft | 281 kts | 223° |
| 2026-05-04 02:28 | 46.21361 | 5.86756 | 11625 ft | 271 kts | 223° |
| 2026-05-04 02:28 | 46.20048 | 5.84851 | 11213 ft | 263 kts | 223° |
| 2026-05-04 02:29 | 46.18779 | 5.83011 | 10812 ft | 254 kts | 223° |
| 2026-05-04 02:29 | 46.17553 | 5.81233 | 10428 ft | 246 kts | 222° |
| 2026-05-04 02:29 | 46.16359 | 5.79507 | 10053 ft | 239 kts | 222° |
| 2026-05-04 02:29 | 46.15203 | 5.77837 | 9670 ft | 232 kts | 221° |
| 2026-05-04 02:30 | 46.14071 | 5.76201 | 9299 ft | 227 kts | 222° |
| 2026-05-04 02:30 | 46.12960 | 5.74594 | 9171 ft | 227 kts | 221° |
| 2026-05-04 02:30 | 46.11846 | 5.72985 | 9102 ft | 227 kts | 220° |
| 2026-05-04 02:30 | 46.10573 | 5.71782 | 9002 ft | 210 kts | 196° |
| 2026-05-04 02:31 | 46.09176 | 5.71542 | 8709 ft | 201 kts | 173° |
| 2026-05-04 02:31 | 46.07872 | 5.72198 | 8299 ft | 200 kts | 150° |
| 2026-05-04 02:31 | 46.06831 | 5.73525 | 7917 ft | 200 kts | 140° |
| 2026-05-04 02:31 | 46.05839 | 5.74933 | 7523 ft | 201 kts | 140° |
| 2026-05-04 02:32 | 46.04825 | 5.76356 | 7126 ft | 205 kts | 140° |
| 2026-05-04 02:32 | 46.03868 | 5.77899 | 6732 ft | 212 kts | 123° |
| 2026-05-04 02:32 | 46.03524 | 5.79994 | 6339 ft | 225 kts | 90° |
| 2026-05-04 02:32 | 46.04099 | 5.82100 | 6014 ft | 228 kts | 51° |
| 2026-05-04 02:33 | 46.05282 | 5.83477 | 6048 ft | 207 kts | 41° |
| 2026-05-04 02:33 | 46.06191 | 5.84912 | 5995 ft | 186 kts | 58° |
| 2026-05-04 02:33 | 46.07019 | 5.86320 | 5788 ft | 182 kts | 51° |
| 2026-05-04 02:33 | 46.07881 | 5.87622 | 5570 ft | 177 kts | 50° |
| 2026-05-04 02:34 | 46.08727 | 5.88867 | 5340 ft | 169 kts | 49° |
| 2026-05-04 02:34 | 46.09548 | 5.90065 | 5106 ft | 165 kts | 49° |
| 2026-05-04 02:34 | 46.10345 | 5.91227 | 4939 ft | 164 kts | 49° |
| 2026-05-04 02:34 | 46.11138 | 5.92382 | 4695 ft | 160 kts | 48° |
| 2026-05-04 02:35 | 46.11916 | 5.93516 | 4488 ft | 159 kts | 47° |
| 2026-05-04 02:35 | 46.12688 | 5.94640 | 4277 ft | 157 kts | 47° |
| 2026-05-04 02:35 | 46.13453 | 5.95756 | 4051 ft | 156 kts | 47° |
| 2026-05-04 02:35 | 46.14211 | 5.96862 | 3854 ft | 154 kts | 47° |
| 2026-05-04 02:36 | 46.14963 | 5.97958 | 3651 ft | 153 kts | 46° |
| 2026-05-04 02:36 | 46.15709 | 5.99047 | 3446 ft | 152 kts | 46° |
| 2026-05-04 02:36 | 46.16444 | 6.00121 | 3247 ft | 150 kts | 46° |
| 2026-05-04 02:36 | 46.17171 | 6.01182 | 3039 ft | 147 kts | 46° |
| 2026-05-04 02:37 | 46.17886 | 6.02228 | 2826 ft | 145 kts | 45° |
| 2026-05-04 02:37 | 46.18592 | 6.03259 | 2631 ft | 143 kts | 45° |
| 2026-05-04 02:37 | 46.19289 | 6.04278 | 2430 ft | 142 kts | 45° |
| 2026-05-04 02:37 | 46.19976 | 6.05284 | 2238 ft | 140 kts | 45° |
| 2026-05-04 02:38 | 46.20658 | 6.06282 | 2046 ft | 139 kts | 45° |
| 2026-05-04 02:38 | 46.21338 | 6.07278 | 1862 ft | 139 kts | 45° |
| 2026-05-04 02:38 | 46.22019 | 6.08274 | 1680 ft | 139 kts | 45° |
| 2026-05-04 02:38 | 46.22700 | 6.09272 | 1478 ft | 139 kts | 45° |
| 2026-05-04 02:39 | 46.23146 | 6.09926 | 1422 ft | 132 kts | 45° |
| 2026-05-04 02:39 | 46.23695 | 6.10730 | 1401 ft | 81 kts | 45° |
| 2026-05-04 02:39 | 46.23860 | 6.11025 | 1399 ft | 14 kts | 99° |
| 2026-05-04 02:39 | 46.23825 | 6.11074 | 1402 ft | 5 kts | 168° |
| 2026-05-04 02:40 | 46.23796 | 6.11079 | 1406 ft | 4 kts | 172° |
| 2026-05-04 02:40 | 46.23773 | 6.11084 | 1401 ft | 3 kts | 172° |
| 2026-05-04 02:40 | 46.23755 | 6.11088 | 1398 ft | 2 kts | 172° |
| 2026-05-04 02:40 | 46.23722 | 6.11087 | 1397 ft | 9 kts | 194° |
| 2026-05-04 02:41 | 46.23647 | 6.11099 | 1396 ft | 15 kts | 133° |
| 2026-05-04 02:41 | 46.23557 | 6.11139 | 1398 ft | 16 kts | 231° |
| 2026-05-04 02:41 | 46.23496 | 6.11051 | 1401 ft | 11 kts | 225° |
| 2026-05-04 02:41 | 46.23449 | 6.10983 | 1398 ft | 10 kts | 226° |
| 2026-05-04 02:42 | 46.23388 | 6.10893 | 1397 ft | 13 kts | 225° |
| 2026-05-04 02:42 | 46.23332 | 6.10811 | 1398 ft | 10 kts | 217° |
| 2026-05-04 02:42 | 46.23262 | 6.10779 | 1400 ft | 10 kts | 197° |
| 2026-05-04 02:42 | 46.23200 | 6.10709 | 1411 ft | 10 kts | 225° |
| 2026-05-04 02:43 | 46.23161 | 6.10662 | 1405 ft | 4 kts | 189° |
| 2026-05-04 02:43 | 46.23137 | 6.10692 | 1412 ft | 4 kts | 134° |
| 2026-05-04 02:43 | 46.23131 | 6.10701 | 1405 ft | 0 kts | 134° |